sensor_id;sensor_type;location;lat;lon;timestamp;temperature;humidity
68924;DHT22;55961;52.156;20.942;2023-09-07T00:00:10;17.80;71.00
68924;DHT22;55961;52.156;20.942;2023-09-07T00:02:57;17.80;71.00
68924;DHT22;55961;52.156;20.942;2023-09-07T00:05:22;17.70;71.10
68924;DHT22;55961;52.156;20.942;2023-09-07T00:07:48;17.70;71.10
68924;DHT22;55961;52.156;20.942;2023-09-07T00:10:14;17.70;71.20
68924;DHT22;55961;52.156;20.942;2023-09-07T00:12:40;17.70;71.10
68924;DHT22;55961;52.156;20.942;2023-09-07T00:15:07;17.70;71.10
68924;DHT22;55961;52.156;20.942;2023-09-07T00:17:33;17.60;71.20
68924;DHT22;55961;52.156;20.942;2023-09-07T00:19:59;17.60;71.40
68924;DHT22;55961;52.156;20.942;2023-09-07T00:22:25;17.60;71.60
68924;DHT22;55961;52.156;20.942;2023-09-07T00:24:53;17.60;71.70
68924;DHT22;55961;52.156;20.942;2023-09-07T00:27:19;17.50;71.90
68924;DHT22;55961;52.156;20.942;2023-09-07T00:29:45;17.50;71.90
68924;DHT22;55961;52.156;20.942;2023-09-07T00:32:11;17.50;72.10
68924;DHT22;55961;52.156;20.942;2023-09-07T00:34:37;17.40;72.10
68924;DHT22;55961;52.156;20.942;2023-09-07T00:37:03;17.40;72.20
68924;DHT22;55961;52.156;20.942;2023-09-07T00:39:29;17.40;72.30
68924;DHT22;55961;52.156;20.942;2023-09-07T00:41:55;17.40;72.20
68924;DHT22;55961;52.156;20.942;2023-09-07T00:44:21;17.40;72.40
68924;DHT22;55961;52.156;20.942;2023-09-07T00:46:47;17.30;72.30
68924;DHT22;55961;52.156;20.942;2023-09-07T00:49:13;17.30;72.30
68924;DHT22;55961;52.156;20.942;2023-09-07T00:51:39;17.30;72.40
68924;DHT22;55961;52.156;20.942;2023-09-07T00:54:05;17.30;72.40
68924;DHT22;55961;52.156;20.942;2023-09-07T00:56:32;17.20;72.50
68924;DHT22;55961;52.156;20.942;2023-09-07T00:58:58;17.20;72.60
68924;DHT22;55961;52.156;20.942;2023-09-07T01:01:26;17.20;72.60
68924;DHT22;55961;52.156;20.942;2023-09-07T01:03:52;17.10;72.60
68924;DHT22;55961;52.156;20.942;2023-09-07T01:06:25;17.10;72.80
68924;DHT22;55961;52.156;20.942;2023-09-07T01:08:55;17.10;72.90
68924;DHT22;55961;52.156;20.942;2023-09-07T01:11:24;17.10;72.80
68924;DHT22;55961;52.156;20.942;2023-09-07T01:13:51;17.10;72.90
68924;DHT22;55961;52.156;20.942;2023-09-07T01:16:21;17.00;72.80
68924;DHT22;55961;52.156;20.942;2023-09-07T01:18:47;17.00;72.80
68924;DHT22;55961;52.156;20.942;2023-09-07T01:21:13;17.00;72.70
68924;DHT22;55961;52.156;20.942;2023-09-07T01:23:43;16.90;72.90
68924;DHT22;55961;52.156;20.942;2023-09-07T01:26:10;16.90;73.00
68924;DHT22;55961;52.156;20.942;2023-09-07T01:28:36;16.90;72.90
68924;DHT22;55961;52.156;20.942;2023-09-07T01:31:04;16.90;72.90
68924;DHT22;55961;52.156;20.942;2023-09-07T01:33:30;16.80;72.90
68924;DHT22;55961;52.156;20.942;2023-09-07T01:35:56;16.80;72.90
68924;DHT22;55961;52.156;20.942;2023-09-07T01:38:22;16.80;72.90
68924;DHT22;55961;52.156;20.942;2023-09-07T01:40:48;16.80;72.90
68924;DHT22;55961;52.156;20.942;2023-09-07T01:43:14;16.70;72.90
68924;DHT22;55961;52.156;20.942;2023-09-07T01:45:40;16.70;73.10
68924;DHT22;55961;52.156;20.942;2023-09-07T01:48:11;16.60;73.20
68924;DHT22;55961;52.156;20.942;2023-09-07T01:50:38;16.60;73.40
68924;DHT22;55961;52.156;20.942;2023-09-07T01:53:04;16.60;73.40
68924;DHT22;55961;52.156;20.942;2023-09-07T01:55:31;16.50;73.40
68924;DHT22;55961;52.156;20.942;2023-09-07T01:57:57;16.50;73.40
68924;DHT22;55961;52.156;20.942;2023-09-07T02:00:23;16.50;73.50
68924;DHT22;55961;52.156;20.942;2023-09-07T02:02:49;16.50;73.50
68924;DHT22;55961;52.156;20.942;2023-09-07T02:05:15;16.50;73.50
68924;DHT22;55961;52.156;20.942;2023-09-07T02:07:42;16.40;73.60
68924;DHT22;55961;52.156;20.942;2023-09-07T02:10:09;16.40;73.60
68924;DHT22;55961;52.156;20.942;2023-09-07T02:12:34;16.40;73.80
68924;DHT22;55961;52.156;20.942;2023-09-07T02:15:02;16.30;73.90
68924;DHT22;55961;52.156;20.942;2023-09-07T02:17:29;16.30;73.90
68924;DHT22;55961;52.156;20.942;2023-09-07T02:19:56;16.30;73.90
68924;DHT22;55961;52.156;20.942;2023-09-07T02:22:22;16.30;73.90
68924;DHT22;55961;52.156;20.942;2023-09-07T02:24:48;16.30;74.00
68924;DHT22;55961;52.156;20.942;2023-09-07T02:27:14;16.30;74.10
68924;DHT22;55961;52.156;20.942;2023-09-07T02:29:40;16.30;74.10
68924;DHT22;55961;52.156;20.942;2023-09-07T02:32:06;16.30;74.00
68924;DHT22;55961;52.156;20.942;2023-09-07T02:34:32;16.20;74.00
68924;DHT22;55961;52.156;20.942;2023-09-07T02:37:02;16.20;73.90
68924;DHT22;55961;52.156;20.942;2023-09-07T02:39:29;16.20;74.00
68924;DHT22;55961;52.156;20.942;2023-09-07T02:41:55;16.20;74.00
68924;DHT22;55961;52.156;20.942;2023-09-07T02:44:21;16.20;74.10
68924;DHT22;55961;52.156;20.942;2023-09-07T02:46:46;16.20;74.20
68924;DHT22;55961;52.156;20.942;2023-09-07T02:49:13;16.10;74.10
68924;DHT22;55961;52.156;20.942;2023-09-07T02:51:39;16.10;74.10
68924;DHT22;55961;52.156;20.942;2023-09-07T02:54:05;16.10;74.10
68924;DHT22;55961;52.156;20.942;2023-09-07T02:56:31;16.10;74.10
68924;DHT22;55961;52.156;20.942;2023-09-07T02:58:57;16.10;74.10
68924;DHT22;55961;52.156;20.942;2023-09-07T03:01:23;16.10;74.20
68924;DHT22;55961;52.156;20.942;2023-09-07T03:03:49;16.00;74.20
68924;DHT22;55961;52.156;20.942;2023-09-07T03:06:15;16.00;74.20
68924;DHT22;55961;52.156;20.942;2023-09-07T03:08:43;16.00;74.20
68924;DHT22;55961;52.156;20.942;2023-09-07T03:11:09;16.00;74.30
68924;DHT22;55961;52.156;20.942;2023-09-07T03:13:36;16.00;74.30
68924;DHT22;55961;52.156;20.942;2023-09-07T03:16:03;15.90;74.40
68924;DHT22;55961;52.156;20.942;2023-09-07T03:18:30;15.90;74.40
68924;DHT22;55961;52.156;20.942;2023-09-07T03:20:58;15.90;74.50
68924;DHT22;55961;52.156;20.942;2023-09-07T03:23:25;15.90;74.50
68924;DHT22;55961;52.156;20.942;2023-09-07T03:25:51;15.90;74.60
68924;DHT22;55961;52.156;20.942;2023-09-07T03:28:17;15.90;74.70
68924;DHT22;55961;52.156;20.942;2023-09-07T03:30:43;15.90;74.50
68924;DHT22;55961;52.156;20.942;2023-09-07T03:33:09;15.80;74.40
68924;DHT22;55961;52.156;20.942;2023-09-07T03:35:34;15.80;74.40
68924;DHT22;55961;52.156;20.942;2023-09-07T03:38:01;15.80;74.60
68924;DHT22;55961;52.156;20.942;2023-09-07T03:40:26;15.80;74.90
68924;DHT22;55961;52.156;20.942;2023-09-07T03:42:53;15.80;74.80
68924;DHT22;55961;52.156;20.942;2023-09-07T03:45:18;15.80;74.90
68924;DHT22;55961;52.156;20.942;2023-09-07T03:47:44;15.70;74.90
68924;DHT22;55961;52.156;20.942;2023-09-07T03:50:10;15.70;74.80
68924;DHT22;55961;52.156;20.942;2023-09-07T03:52:36;15.70;74.80
68924;DHT22;55961;52.156;20.942;2023-09-07T03:55:02;15.70;74.80
68924;DHT22;55961;52.156;20.942;2023-09-07T03:57:29;15.70;74.70
68924;DHT22;55961;52.156;20.942;2023-09-07T03:59:56;15.70;74.70
68924;DHT22;55961;52.156;20.942;2023-09-07T04:02:23;15.70;74.80
68924;DHT22;55961;52.156;20.942;2023-09-07T04:04:50;15.60;74.80
68924;DHT22;55961;52.156;20.942;2023-09-07T04:07:16;15.60;74.80
68924;DHT22;55961;52.156;20.942;2023-09-07T04:09:42;15.60;74.80
68924;DHT22;55961;52.156;20.942;2023-09-07T04:12:09;15.60;74.80
68924;DHT22;55961;52.156;20.942;2023-09-07T04:14:35;15.60;74.80
68924;DHT22;55961;52.156;20.942;2023-09-07T04:17:01;15.60;75.00
68924;DHT22;55961;52.156;20.942;2023-09-07T04:19:27;15.60;75.10
68924;DHT22;55961;52.156;20.942;2023-09-07T04:21:53;15.50;75.20
68924;DHT22;55961;52.156;20.942;2023-09-07T04:24:19;15.50;75.30
68924;DHT22;55961;52.156;20.942;2023-09-07T04:26:47;15.60;75.50
68924;DHT22;55961;52.156;20.942;2023-09-07T04:29:13;15.50;75.70
68924;DHT22;55961;52.156;20.942;2023-09-07T04:31:39;15.50;76.70
68924;DHT22;55961;52.156;20.942;2023-09-07T04:34:05;15.50;77.00
68924;DHT22;55961;52.156;20.942;2023-09-07T04:36:31;15.60;77.10
68924;DHT22;55961;52.156;20.942;2023-09-07T04:38:57;15.60;77.60
68924;DHT22;55961;52.156;20.942;2023-09-07T04:41:23;15.70;77.40
68924;DHT22;55961;52.156;20.942;2023-09-07T04:43:49;15.70;76.80
68924;DHT22;55961;52.156;20.942;2023-09-07T04:46:15;15.70;76.40
68924;DHT22;55961;52.156;20.942;2023-09-07T04:48:41;15.70;76.20
68924;DHT22;55961;52.156;20.942;2023-09-07T04:51:09;15.70;76.20
68924;DHT22;55961;52.156;20.942;2023-09-07T04:53:36;15.70;76.20
68924;DHT22;55961;52.156;20.942;2023-09-07T04:56:04;15.70;76.30
68924;DHT22;55961;52.156;20.942;2023-09-07T04:58:30;15.80;76.50
68924;DHT22;55961;52.156;20.942;2023-09-07T05:01:12;15.70;76.60
68924;DHT22;55961;52.156;20.942;2023-09-07T05:03:38;15.80;76.80
68924;DHT22;55961;52.156;20.942;2023-09-07T05:06:06;15.80;77.10
68924;DHT22;55961;52.156;20.942;2023-09-07T05:08:32;15.80;77.10
68924;DHT22;55961;52.156;20.942;2023-09-07T05:11:00;15.80;77.30
68924;DHT22;55961;52.156;20.942;2023-09-07T05:13:26;15.90;77.40
68924;DHT22;55961;52.156;20.942;2023-09-07T05:15:54;15.90;77.50
68924;DHT22;55961;52.156;20.942;2023-09-07T05:18:20;15.90;77.60
68924;DHT22;55961;52.156;20.942;2023-09-07T05:20:47;16.00;77.80
68924;DHT22;55961;52.156;20.942;2023-09-07T05:23:18;16.00;77.80
68924;DHT22;55961;52.156;20.942;2023-09-07T05:25:52;16.10;77.90
68924;DHT22;55961;52.156;20.942;2023-09-07T05:28:19;16.10;77.90
68924;DHT22;55961;52.156;20.942;2023-09-07T05:30:45;16.10;78.00
68924;DHT22;55961;52.156;20.942;2023-09-07T05:33:14;16.20;78.20
68924;DHT22;55961;52.156;20.942;2023-09-07T05:35:41;16.20;78.20
68924;DHT22;55961;52.156;20.942;2023-09-07T05:38:11;16.30;78.40
68924;DHT22;55961;52.156;20.942;2023-09-07T05:40:39;16.30;78.50
68924;DHT22;55961;52.156;20.942;2023-09-07T05:43:06;16.40;78.40
68924;DHT22;55961;52.156;20.942;2023-09-07T05:45:35;16.50;78.50
68924;DHT22;55961;52.156;20.942;2023-09-07T05:48:05;16.60;78.30
68924;DHT22;55961;52.156;20.942;2023-09-07T05:50:35;16.70;78.00
68924;DHT22;55961;52.156;20.942;2023-09-07T05:53:02;16.80;78.10
68924;DHT22;55961;52.156;20.942;2023-09-07T05:55:28;16.90;78.10
68924;DHT22;55961;52.156;20.942;2023-09-07T05:57:55;16.90;77.70
68924;DHT22;55961;52.156;20.942;2023-09-07T06:00:21;17.00;77.40
68924;DHT22;55961;52.156;20.942;2023-09-07T06:02:47;17.10;77.30
68924;DHT22;55961;52.156;20.942;2023-09-07T06:05:13;17.20;76.90
68924;DHT22;55961;52.156;20.942;2023-09-07T06:07:40;17.30;76.60
68924;DHT22;55961;52.156;20.942;2023-09-07T06:10:06;17.50;76.20
68924;DHT22;55961;52.156;20.942;2023-09-07T06:12:33;17.60;76.10
68924;DHT22;55961;52.156;20.942;2023-09-07T06:15:02;17.70;75.80
68924;DHT22;55961;52.156;20.942;2023-09-07T06:17:29;17.80;75.60
68924;DHT22;55961;52.156;20.942;2023-09-07T06:19:56;18.00;75.50
68924;DHT22;55961;52.156;20.942;2023-09-07T06:22:22;18.10;75.40
68924;DHT22;55961;52.156;20.942;2023-09-07T06:24:49;18.30;75.00
68924;DHT22;55961;52.156;20.942;2023-09-07T06:27:15;18.50;74.90
68924;DHT22;55961;52.156;20.942;2023-09-07T06:29:41;18.60;74.20
68924;DHT22;55961;52.156;20.942;2023-09-07T06:32:07;18.80;73.70
68924;DHT22;55961;52.156;20.942;2023-09-07T06:34:33;18.90;73.20
68924;DHT22;55961;52.156;20.942;2023-09-07T06:36:59;19.10;72.80
68924;DHT22;55961;52.156;20.942;2023-09-07T06:39:25;19.20;72.60
68924;DHT22;55961;52.156;20.942;2023-09-07T06:41:51;19.40;72.40
68924;DHT22;55961;52.156;20.942;2023-09-07T06:44:16;19.50;71.90
68924;DHT22;55961;52.156;20.942;2023-09-07T06:46:42;19.70;71.60
68924;DHT22;55961;52.156;20.942;2023-09-07T06:49:08;19.90;71.30
68924;DHT22;55961;52.156;20.942;2023-09-07T06:51:34;20.00;70.70
68924;DHT22;55961;52.156;20.942;2023-09-07T06:54:00;20.20;70.30
68924;DHT22;55961;52.156;20.942;2023-09-07T06:56:26;20.40;70.20
68924;DHT22;55961;52.156;20.942;2023-09-07T06:58:52;20.50;69.50
68924;DHT22;55961;52.156;20.942;2023-09-07T07:01:18;20.70;69.20
68924;DHT22;55961;52.156;20.942;2023-09-07T07:03:44;20.90;68.30
68924;DHT22;55961;52.156;20.942;2023-09-07T07:06:10;21.00;68.60
68924;DHT22;55961;52.156;20.942;2023-09-07T07:08:36;21.20;67.80
68924;DHT22;55961;52.156;20.942;2023-09-07T07:11:02;21.40;67.50
68924;DHT22;55961;52.156;20.942;2023-09-07T07:13:28;21.50;67.10
68924;DHT22;55961;52.156;20.942;2023-09-07T07:15:55;21.70;66.20
68924;DHT22;55961;52.156;20.942;2023-09-07T07:18:21;21.90;65.80
68924;DHT22;55961;52.156;20.942;2023-09-07T07:20:47;22.00;65.80
68924;DHT22;55961;52.156;20.942;2023-09-07T07:23:12;22.20;65.00
68924;DHT22;55961;52.156;20.942;2023-09-07T07:25:39;22.40;64.50
68924;DHT22;55961;52.156;20.942;2023-09-07T07:28:05;22.50;64.10
68924;DHT22;55961;52.156;20.942;2023-09-07T07:30:36;22.70;63.80
68924;DHT22;55961;52.156;20.942;2023-09-07T07:33:03;22.90;63.60
68924;DHT22;55961;52.156;20.942;2023-09-07T07:35:32;23.10;63.20
68924;DHT22;55961;52.156;20.942;2023-09-07T07:38:00;23.20;62.70
68924;DHT22;55961;52.156;20.942;2023-09-07T07:40:26;23.40;62.10
68924;DHT22;55961;52.156;20.942;2023-09-07T07:42:53;23.50;61.40
68924;DHT22;55961;52.156;20.942;2023-09-07T07:45:19;23.70;60.80
68924;DHT22;55961;52.156;20.942;2023-09-07T07:47:46;23.90;60.40
68924;DHT22;55961;52.156;20.942;2023-09-07T07:50:12;24.10;60.60
68924;DHT22;55961;52.156;20.942;2023-09-07T07:52:38;24.20;60.00
68924;DHT22;55961;52.156;20.942;2023-09-07T07:55:04;24.40;59.40
68924;DHT22;55961;52.156;20.942;2023-09-07T07:57:31;24.60;59.00
68924;DHT22;55961;52.156;20.942;2023-09-07T07:59:58;24.80;58.60
68924;DHT22;55961;52.156;20.942;2023-09-07T08:02:24;24.90;58.50
68924;DHT22;55961;52.156;20.942;2023-09-07T08:04:50;25.10;57.80
68924;DHT22;55961;52.156;20.942;2023-09-07T08:07:16;25.30;57.00
68924;DHT22;55961;52.156;20.942;2023-09-07T08:09:42;25.50;56.30
68924;DHT22;55961;52.156;20.942;2023-09-07T08:12:08;25.60;55.70
68924;DHT22;55961;52.156;20.942;2023-09-07T08:14:35;25.80;55.30
68924;DHT22;55961;52.156;20.942;2023-09-07T08:17:01;26.00;55.10
68924;DHT22;55961;52.156;20.942;2023-09-07T08:19:27;26.10;54.40
68924;DHT22;55961;52.156;20.942;2023-09-07T08:21:59;26.20;54.30
68924;DHT22;55961;52.156;20.942;2023-09-07T08:24:25;26.30;54.00
68924;DHT22;55961;52.156;20.942;2023-09-07T08:26:51;26.50;53.60
68924;DHT22;55961;52.156;20.942;2023-09-07T08:29:20;26.60;53.70
68924;DHT22;55961;52.156;20.942;2023-09-07T08:31:55;26.70;53.30
68924;DHT22;55961;52.156;20.942;2023-09-07T08:34:21;26.90;53.10
68924;DHT22;55961;52.156;20.942;2023-09-07T08:36:48;27.00;53.40
68924;DHT22;55961;52.156;20.942;2023-09-07T08:39:16;27.20;53.00
68924;DHT22;55961;52.156;20.942;2023-09-07T08:41:43;27.30;52.80
68924;DHT22;55961;52.156;20.942;2023-09-07T08:44:10;27.50;52.00
68924;DHT22;55961;52.156;20.942;2023-09-07T08:46:40;27.60;51.50
68924;DHT22;55961;52.156;20.942;2023-09-07T08:49:07;27.80;51.90
68924;DHT22;55961;52.156;20.942;2023-09-07T08:51:35;28.00;51.40
68924;DHT22;55961;52.156;20.942;2023-09-07T08:54:07;28.20;50.60
68924;DHT22;55961;52.156;20.942;2023-09-07T08:56:35;28.30;50.20
68924;DHT22;55961;52.156;20.942;2023-09-07T08:59:01;28.50;49.80
68924;DHT22;55961;52.156;20.942;2023-09-07T09:01:28;28.60;49.60
68924;DHT22;55961;52.156;20.942;2023-09-07T09:03:57;28.70;49.60
68924;DHT22;55961;52.156;20.942;2023-09-07T09:06:24;28.90;48.90
68924;DHT22;55961;52.156;20.942;2023-09-07T09:08:52;29.00;48.60
68924;DHT22;55961;52.156;20.942;2023-09-07T09:11:19;29.20;48.30
68924;DHT22;55961;52.156;20.942;2023-09-07T09:13:45;29.30;47.90
68924;DHT22;55961;52.156;20.942;2023-09-07T09:16:12;29.40;47.80
68924;DHT22;55961;52.156;20.942;2023-09-07T09:18:51;29.50;48.10
68924;DHT22;55961;52.156;20.942;2023-09-07T09:21:19;29.50;47.60
68924;DHT22;55961;52.156;20.942;2023-09-07T09:23:48;29.60;47.80
68924;DHT22;55961;52.156;20.942;2023-09-07T09:26:15;29.50;46.80
68924;DHT22;55961;52.156;20.942;2023-09-07T09:28:42;29.50;46.70
68924;DHT22;55961;52.156;20.942;2023-09-07T09:31:09;29.50;47.70
68924;DHT22;55961;52.156;20.942;2023-09-07T09:33:42;29.60;47.50
68924;DHT22;55961;52.156;20.942;2023-09-07T09:36:08;29.60;46.80
68924;DHT22;55961;52.156;20.942;2023-09-07T09:38:35;29.70;46.40
68924;DHT22;55961;52.156;20.942;2023-09-07T09:41:03;29.80;46.50
68924;DHT22;55961;52.156;20.942;2023-09-07T09:43:29;29.90;46.20
68924;DHT22;55961;52.156;20.942;2023-09-07T09:45:56;30.10;46.00
68924;DHT22;55961;52.156;20.942;2023-09-07T09:48:24;30.20;45.30
68924;DHT22;55961;52.156;20.942;2023-09-07T09:50:50;30.30;44.10
68924;DHT22;55961;52.156;20.942;2023-09-07T09:53:17;30.40;43.90
68924;DHT22;55961;52.156;20.942;2023-09-07T09:55:49;30.50;45.10
68924;DHT22;55961;52.156;20.942;2023-09-07T09:58:18;30.60;44.30
68924;DHT22;55961;52.156;20.942;2023-09-07T10:00:46;30.70;44.10
68924;DHT22;55961;52.156;20.942;2023-09-07T10:03:33;30.70;44.10
68924;DHT22;55961;52.156;20.942;2023-09-07T10:06:17;30.80;43.80
68924;DHT22;55961;52.156;20.942;2023-09-07T10:09:03;30.80;44.40
68924;DHT22;55961;52.156;20.942;2023-09-07T10:11:39;30.90;44.20
68924;DHT22;55961;52.156;20.942;2023-09-07T10:14:07;30.90;43.70
68924;DHT22;55961;52.156;20.942;2023-09-07T10:21:42;31.10;43.10
68924;DHT22;55961;52.156;20.942;2023-09-07T10:24:08;31.10;43.20
68924;DHT22;55961;52.156;20.942;2023-09-07T10:26:34;31.00;43.30
68924;DHT22;55961;52.156;20.942;2023-09-07T10:29:01;31.00;43.60
68924;DHT22;55961;52.156;20.942;2023-09-07T10:31:29;31.00;43.90
68924;DHT22;55961;52.156;20.942;2023-09-07T10:34:09;30.90;43.30
68924;DHT22;55961;52.156;20.942;2023-09-07T10:36:38;30.80;43.40
68924;DHT22;55961;52.156;20.942;2023-09-07T10:39:05;30.70;44.10
68924;DHT22;55961;52.156;20.942;2023-09-07T10:41:42;30.70;43.00
68924;DHT22;55961;52.156;20.942;2023-09-07T10:44:09;30.60;43.00
68924;DHT22;55961;52.156;20.942;2023-09-07T10:46:39;30.50;43.30
68924;DHT22;55961;52.156;20.942;2023-09-07T10:49:11;30.50;43.40
68924;DHT22;55961;52.156;20.942;2023-09-07T10:51:46;30.50;43.60
68924;DHT22;55961;52.156;20.942;2023-09-07T10:54:17;30.60;43.40
68924;DHT22;55961;52.156;20.942;2023-09-07T10:56:44;30.70;43.30
68924;DHT22;55961;52.156;20.942;2023-09-07T10:59:12;30.90;43.10
68924;DHT22;55961;52.156;20.942;2023-09-07T11:01:38;31.00;42.30
68924;DHT22;55961;52.156;20.942;2023-09-07T11:04:04;31.20;42.00
68924;DHT22;55961;52.156;20.942;2023-09-07T11:06:31;31.40;42.20
68924;DHT22;55961;52.156;20.942;2023-09-07T11:09:01;31.50;42.00
68924;DHT22;55961;52.156;20.942;2023-09-07T11:11:33;31.60;41.60
68924;DHT22;55961;52.156;20.942;2023-09-07T11:13:59;31.60;42.00
68924;DHT22;55961;52.156;20.942;2023-09-07T11:16:25;31.60;41.10
68924;DHT22;55961;52.156;20.942;2023-09-07T11:18:53;31.60;42.10
68924;DHT22;55961;52.156;20.942;2023-09-07T11:21:20;31.50;41.40
68924;DHT22;55961;52.156;20.942;2023-09-07T11:23:47;31.40;40.90
68924;DHT22;55961;52.156;20.942;2023-09-07T11:26:13;31.40;41.40
68924;DHT22;55961;52.156;20.942;2023-09-07T11:28:39;31.20;41.80
68924;DHT22;55961;52.156;20.942;2023-09-07T11:31:06;31.10;42.60
68924;DHT22;55961;52.156;20.942;2023-09-07T11:33:32;31.10;43.00
68924;DHT22;55961;52.156;20.942;2023-09-07T11:35:59;31.10;42.60
68924;DHT22;55961;52.156;20.942;2023-09-07T11:38:29;31.10;41.50
68924;DHT22;55961;52.156;20.942;2023-09-07T11:40:56;31.10;42.20
68924;DHT22;55961;52.156;20.942;2023-09-07T11:43:22;31.20;42.70
68924;DHT22;55961;52.156;20.942;2023-09-07T11:45:49;31.40;41.30
68924;DHT22;55961;52.156;20.942;2023-09-07T11:48:15;31.50;40.70
68924;DHT22;55961;52.156;20.942;2023-09-07T11:50:41;31.60;41.20
68924;DHT22;55961;52.156;20.942;2023-09-07T11:53:07;31.70;40.60
68924;DHT22;55961;52.156;20.942;2023-09-07T11:55:34;31.80;40.40
68924;DHT22;55961;52.156;20.942;2023-09-07T11:58:01;31.90;40.50
68924;DHT22;55961;52.156;20.942;2023-09-07T12:00:27;32.00;40.50
68924;DHT22;55961;52.156;20.942;2023-09-07T12:02:54;32.00;40.20
68924;DHT22;55961;52.156;20.942;2023-09-07T12:05:20;32.00;40.30
68924;DHT22;55961;52.156;20.942;2023-09-07T12:07:46;32.00;39.00
68924;DHT22;55961;52.156;20.942;2023-09-07T12:10:12;32.00;39.20
68924;DHT22;55961;52.156;20.942;2023-09-07T12:12:41;32.00;40.40
68924;DHT22;55961;52.156;20.942;2023-09-07T12:15:08;32.00;41.00
68924;DHT22;55961;52.156;20.942;2023-09-07T12:17:35;32.00;40.40
68924;DHT22;55961;52.156;20.942;2023-09-07T12:20:01;32.00;40.40
68924;DHT22;55961;52.156;20.942;2023-09-07T12:22:27;31.90;39.90
68924;DHT22;55961;52.156;20.942;2023-09-07T12:24:53;31.80;40.00
68924;DHT22;55961;52.156;20.942;2023-09-07T12:27:19;31.70;40.50
68924;DHT22;55961;52.156;20.942;2023-09-07T12:29:45;31.60;40.60
68924;DHT22;55961;52.156;20.942;2023-09-07T12:32:14;31.50;40.90
68924;DHT22;55961;52.156;20.942;2023-09-07T12:34:41;31.50;41.30
68924;DHT22;55961;52.156;20.942;2023-09-07T12:37:07;31.50;40.20
68924;DHT22;55961;52.156;20.942;2023-09-07T12:39:33;31.50;40.00
68924;DHT22;55961;52.156;20.942;2023-09-07T12:41:59;31.60;40.10
68924;DHT22;55961;52.156;20.942;2023-09-07T12:44:25;31.70;40.20
68924;DHT22;55961;52.156;20.942;2023-09-07T12:46:51;31.70;40.00
68924;DHT22;55961;52.156;20.942;2023-09-07T12:49:17;31.80;39.60
68924;DHT22;55961;52.156;20.942;2023-09-07T12:51:44;31.90;39.20
68924;DHT22;55961;52.156;20.942;2023-09-07T12:54:10;32.00;39.30
68924;DHT22;55961;52.156;20.942;2023-09-07T12:56:36;31.90;39.10
68924;DHT22;55961;52.156;20.942;2023-09-07T12:59:02;31.90;38.90
68924;DHT22;55961;52.156;20.942;2023-09-07T13:01:29;32.00;38.70
68924;DHT22;55961;52.156;20.942;2023-09-07T13:03:56;32.10;38.20
68924;DHT22;55961;52.156;20.942;2023-09-07T13:06:22;32.20;38.30
68924;DHT22;55961;52.156;20.942;2023-09-07T13:08:48;32.20;38.90
68924;DHT22;55961;52.156;20.942;2023-09-07T13:11:14;32.30;39.90
68924;DHT22;55961;52.156;20.942;2023-09-07T13:13:40;32.40;38.20
68924;DHT22;55961;52.156;20.942;2023-09-07T13:16:06;32.50;38.60
68924;DHT22;55961;52.156;20.942;2023-09-07T13:18:32;32.60;37.90
68924;DHT22;55961;52.156;20.942;2023-09-07T13:20:58;32.70;37.30
68924;DHT22;55961;52.156;20.942;2023-09-07T13:23:30;32.80;38.00
68924;DHT22;55961;52.156;20.942;2023-09-07T13:25:57;32.90;37.80
68924;DHT22;55961;52.156;20.942;2023-09-07T13:28:23;33.00;38.00
68924;DHT22;55961;52.156;20.942;2023-09-07T13:30:53;33.00;36.90
68924;DHT22;55961;52.156;20.942;2023-09-07T13:33:19;33.10;37.40
68924;DHT22;55961;52.156;20.942;2023-09-07T13:35:45;33.20;37.10
68924;DHT22;55961;52.156;20.942;2023-09-07T13:38:11;33.20;36.20
68924;DHT22;55961;52.156;20.942;2023-09-07T13:40:37;33.30;35.80
68924;DHT22;55961;52.156;20.942;2023-09-07T13:43:03;33.30;35.50
68924;DHT22;55961;52.156;20.942;2023-09-07T13:45:29;33.30;36.00
68924;DHT22;55961;52.156;20.942;2023-09-07T13:47:55;33.40;35.50
68924;DHT22;55961;52.156;20.942;2023-09-07T13:50:22;33.40;35.30
68924;DHT22;55961;52.156;20.942;2023-09-07T13:52:48;33.40;35.30
68924;DHT22;55961;52.156;20.942;2023-09-07T13:55:15;33.40;35.90
68924;DHT22;55961;52.156;20.942;2023-09-07T13:57:40;33.40;36.00
68924;DHT22;55961;52.156;20.942;2023-09-07T14:00:07;33.50;36.00
68924;DHT22;55961;52.156;20.942;2023-09-07T14:02:33;33.50;36.10
68924;DHT22;55961;52.156;20.942;2023-09-07T14:04:59;33.60;35.40
68924;DHT22;55961;52.156;20.942;2023-09-07T14:07:25;33.60;34.60
68924;DHT22;55961;52.156;20.942;2023-09-07T14:09:54;33.70;34.60
68924;DHT22;55961;52.156;20.942;2023-09-07T14:12:20;33.70;33.90
68924;DHT22;55961;52.156;20.942;2023-09-07T14:14:48;33.80;34.10
68924;DHT22;55961;52.156;20.942;2023-09-07T14:17:14;33.80;34.60
68924;DHT22;55961;52.156;20.942;2023-09-07T14:19:40;33.80;35.30
68924;DHT22;55961;52.156;20.942;2023-09-07T14:22:06;33.80;35.00
68924;DHT22;55961;52.156;20.942;2023-09-07T14:24:32;33.70;35.00
68924;DHT22;55961;52.156;20.942;2023-09-07T14:26:58;33.70;35.00
68924;DHT22;55961;52.156;20.942;2023-09-07T14:29:24;33.60;34.90
68924;DHT22;55961;52.156;20.942;2023-09-07T14:31:52;33.60;35.30
68924;DHT22;55961;52.156;20.942;2023-09-07T14:34:18;33.50;35.60
68924;DHT22;55961;52.156;20.942;2023-09-07T14:36:44;33.40;35.80
68924;DHT22;55961;52.156;20.942;2023-09-07T14:39:10;33.40;36.10
68924;DHT22;55961;52.156;20.942;2023-09-07T14:41:36;33.30;36.30
68924;DHT22;55961;52.156;20.942;2023-09-07T14:44:02;33.10;36.20
68924;DHT22;55961;52.156;20.942;2023-09-07T14:46:28;33.00;36.20
68924;DHT22;55961;52.156;20.942;2023-09-07T14:48:55;32.90;36.60
68924;DHT22;55961;52.156;20.942;2023-09-07T14:51:22;32.80;36.50
68924;DHT22;55961;52.156;20.942;2023-09-07T14:53:48;32.60;36.60
68924;DHT22;55961;52.156;20.942;2023-09-07T14:56:14;32.50;36.70
68924;DHT22;55961;52.156;20.942;2023-09-07T14:58:40;32.40;37.00
68924;DHT22;55961;52.156;20.942;2023-09-07T15:01:06;32.30;37.50
68924;DHT22;55961;52.156;20.942;2023-09-07T15:03:33;32.20;37.40
68924;DHT22;55961;52.156;20.942;2023-09-07T15:05:59;32.10;37.70
68924;DHT22;55961;52.156;20.942;2023-09-07T15:08:24;32.00;37.40
68924;DHT22;55961;52.156;20.942;2023-09-07T15:10:51;31.90;37.30
68924;DHT22;55961;52.156;20.942;2023-09-07T15:13:17;31.90;37.70
68924;DHT22;55961;52.156;20.942;2023-09-07T15:15:43;31.80;37.20
68924;DHT22;55961;52.156;20.942;2023-09-07T15:18:09;31.70;37.20